Holly Ann — WDE9094 — position and weather

sailwx.info

Track history (hours):
 
Tides and Currents Weather Stations Pressure Air Temp Water Temp Dewpoint Dewpoint Depression Visibility Wind Speed Wind Dir Waves Ship Positions

Holly Ann

Owner: Manke Tug and Barge Co., Inc., Shelton, WA. More information available from US FCC via Universal Licensing System and Coast Guard Vessel Documentation Center.

Last reported at 2016-Dec-08 17:33 UTC. Time now 2016-Dec-08 18:06 UTC.
Position N 47°35' W 122°21'.

; draft 4.5 m.

Type: Towing. MMSI: 367413350.

Date/timePositionNaut miles runAvg speedWind from/ knotsBaromVisibWave heightAir tempDewpointWater temp
2016-Dec-08 17:33N 47°35' W 122°21'1 1.2
2016-Dec-08 16:34N 47°34' W 122°21'0 0.0
2016-Dec-08 15:34N 47°34' W 122°21'1 0.9
2016-Dec-08 14:33N 47°33' W 122°21'0 0.0
2016-Dec-08 13:34N 47°33' W 122°21'0 0.0
2016-Dec-08 12:33N 47°33' W 122°21'0 0.0
2016-Dec-08 11:34N 47°33' W 122°21'0 0.0
2016-Dec-08 10:34N 47°33' W 122°21'0 0.0
2016-Dec-08 09:34N 47°33' W 122°21'0 0.0
2016-Dec-08 08:34N 47°33' W 122°21'0 0.0
2016-Dec-08 07:34N 47°33' W 122°21'0 0.0
2016-Dec-08 06:34N 47°33' W 122°21'0 0.0
2016-Dec-08 05:34N 47°33' W 122°21'0 0.0
2016-Dec-08 04:33N 47°33' W 122°21'0 0.0
2016-Dec-08 03:34N 47°33' W 122°21'0 0.1
2016-Dec-08 02:33N 47°33' W 122°21'3 3.1
2016-Dec-08 01:34N 47°36' W 122°23'6 6.3
2016-Dec-08 00:33N 47°31' W 122°29'7 7.3
2016-Dec-07 23:34N 47°24' W 122°32'9 8.6
2016-Dec-07 22:33N 47°15' W 122°34'11 7.2
2016-Dec-07 21:04N 47°10' W 122°47'8 0.2
2016-Dec-06 02:20N 47°13' W 122°36'810.9
2016-Dec-06 01:33N 47°21' W 122°33'1010.2
2016-Dec-06 00:33N 47°31' W 122°29'6 6.4
2016-Dec-05 23:33N 47°33' W 122°21'0 0.2
2016-Dec-05 22:32N 47°33' W 122°21'0 0.0
2016-Dec-05 21:33N 47°33' W 122°21'0 0.0
2016-Dec-05 20:33N 47°33' W 122°21'0 0.0
2016-Dec-05 19:32N 47°33' W 122°21'0 0.0
2016-Dec-05 18:33N 47°33' W 122°21'0 0.0
2016-Dec-05 17:33N 47°33' W 122°21'0 0.0
2016-Dec-05 16:33N 47°33' W 122°21'0 0.0
2016-Dec-05 15:33N 47°33' W 122°21'0 0.0
2016-Dec-05 14:32N 47°33' W 122°21'0 0.0
2016-Dec-05 13:33N 47°33' W 122°21'0 0.3
2016-Dec-05 12:34N 47°34' W 122°21'3 3.1
2016-Dec-05 11:34N 47°36' W 122°24'3 3.4
2016-Dec-05 10:34N 47°33' W 122°27'5 4.6
2016-Dec-05 09:33N 47°29' W 122°30'5 4.7
2016-Dec-05 08:33N 47°24' W 122°32'6 6.3
2016-Dec-05 07:33N 47°18' W 122°33'7 6.8
2016-Dec-05 06:32N 47°12' W 122°38'  
2016-Dec-01 12:07N 47°13' W 122°36'610.6
2016-Dec-01 11:32N 47°19' W 122°33'7 7.0
2016-Dec-01 10:33N 47°26' W 122°32'6 6.2
2016-Dec-01 09:33N 47°32' W 122°28'6 6.0
2016-Dec-01 08:34N 47°36' W 122°23'2 2.1
2016-Dec-01 07:31N 47°34' W 122°21'0 0.0
2016-Dec-01 06:31N 47°34' W 122°21'0 0.0
2016-Dec-01 05:32N 47°34' W 122°21'0 0.0
2016-Dec-01 04:28N 47°34' W 122°21'0 0.0
2016-Dec-01 03:31N 47°34' W 122°21'0 0.0
2016-Dec-01 02:31N 47°34' W 122°21'0 0.0
2016-Dec-01 01:32N 47°34' W 122°21'0 0.0
2016-Dec-01 00:31N 47°34' W 122°21'0 0.0
2016-Nov-30 23:28N 47°34' W 122°21'0 0.0
2016-Nov-30 22:31N 47°34' W 122°21'0 0.0
2016-Nov-30 21:32N 47°34' W 122°21'0 0.0
2016-Nov-30 20:32N 47°34' W 122°21'0 0.0
2016-Nov-30 19:31N 47°34' W 122°21'0 0.0
2016-Nov-30 18:32N 47°34' W 122°21'0 0.0
2016-Nov-30 17:31N 47°34' W 122°21'0 0.0
2016-Nov-30 16:32N 47°34' W 122°21'0 0.0
2016-Nov-30 15:32N 47°34' W 122°21'0 0.0
2016-Nov-30 14:32N 47°34' W 122°21'0 0.0
2016-Nov-30 13:31N 47°34' W 122°21'0 0.0
2016-Nov-30 12:31N 47°34' W 122°21'0 0.0
2016-Nov-30 11:33N 47°34' W 122°21'2 1.9
2016-Nov-30 10:33N 47°36' W 122°22'2 1.6
2016-Nov-30 09:33N 47°36' W 122°24'3 3.3
2016-Nov-30 08:33N 47°33' W 122°26'5 4.5
2016-Nov-30 07:33N 47°29' W 122°30'2 2.5
2016-Nov-30 06:33N 47°27' W 122°31'6 5.8
2016-Nov-30 05:33N 47°21' W 122°33'8 7.8
2016-Nov-30 04:33N 47°13' W 122°35'9 4.4
2016-Nov-30 02:31N 47°11' W 122°48'5 0.4
2016-Nov-29 13:29N 47°12' W 122°56'5 2.5
2016-Nov-29 11:31N 47°12' W 122°48'4 3.7
2016-Nov-29 10:29N 47°08' W 122°46'4 2.0
2016-Nov-29 08:33N 47°08' W 122°41'6 5.7
2016-Nov-29 07:33N 47°13' W 122°36'6 5.6
2016-Nov-29 06:33N 47°18' W 122°33'5 5.0
2016-Nov-29 05:33N 47°23' W 122°32'6 6.0
2016-Nov-29 04:33N 47°29' W 122°31'6 6.2
2016-Nov-29 03:33N 47°35' W 122°28'7 7.1
2016-Nov-29 02:33N 47°42' W 122°28'7 7.1
2016-Nov-29 01:33N 47°49' W 122°25'8 7.8
2016-Nov-29 00:33N 47°56' W 122°20'6 6.5
2016-Nov-28 23:33N 48°01' W 122°13'2 0.8
2016-Nov-28 21:31N 48°01' W 122°11'0 0.0
2016-Nov-28 20:33N 48°01' W 122°11'0 0.0
2016-Nov-28 19:33N 48°01' W 122°11'  
Track history (hours):
 
Tides and Currents Weather Stations Pressure Air Temp Water Temp Dewpoint Dewpoint Depression Visibility Wind Speed Wind Dir Waves Ship Positions

Holly Ann

Owner: Manke Tug and Barge Co., Inc., Shelton, WA. More information available from US FCC via Universal Licensing System and Coast Guard Vessel Documentation Center.

Last reported at 2016-Dec-08 17:33 UTC. Time now 2016-Dec-08 18:06 UTC.
Position N 47°35' W 122°21'.

; draft 4.5 m.

Type: Towing. MMSI: 367413350.

Date/timePositionNaut miles runAvg speedWind from/ knotsBaromVisibWave heightAir tempDewpointWater temp
2016-Dec-08 17:33N 47°35' W 122°21'1 1.2
2016-Dec-08 16:34N 47°34' W 122°21'0 0.0
2016-Dec-08 15:34N 47°34' W 122°21'1 0.9
2016-Dec-08 14:33N 47°33' W 122°21'0 0.0
2016-Dec-08 13:34N 47°33' W 122°21'0 0.0
2016-Dec-08 12:33N 47°33' W 122°21'0 0.0
2016-Dec-08 11:34N 47°33' W 122°21'0 0.0
2016-Dec-08 10:34N 47°33' W 122°21'0 0.0
2016-Dec-08 09:34N 47°33' W 122°21'0 0.0
2016-Dec-08 08:34N 47°33' W 122°21'0 0.0
2016-Dec-08 07:34N 47°33' W 122°21'0 0.0
2016-Dec-08 06:34N 47°33' W 122°21'0 0.0
2016-Dec-08 05:34N 47°33' W 122°21'0 0.0
2016-Dec-08 04:33N 47°33' W 122°21'0 0.0
2016-Dec-08 03:34N 47°33' W 122°21'0 0.1
2016-Dec-08 02:33N 47°33' W 122°21'3 3.1
2016-Dec-08 01:34N 47°36' W 122°23'6 6.3
2016-Dec-08 00:33N 47°31' W 122°29'7 7.3
2016-Dec-07 23:34N 47°24' W 122°32'9 8.6
2016-Dec-07 22:33N 47°15' W 122°34'11 7.2
2016-Dec-07 21:04N 47°10' W 122°47'8 0.2
2016-Dec-06 02:20N 47°13' W 122°36'810.9
2016-Dec-06 01:33N 47°21' W 122°33'1010.2
2016-Dec-06 00:33N 47°31' W 122°29'6 6.4
2016-Dec-05 23:33N 47°33' W 122°21'0 0.2
2016-Dec-05 22:32N 47°33' W 122°21'0 0.0
2016-Dec-05 21:33N 47°33' W 122°21'0 0.0
2016-Dec-05 20:33N 47°33' W 122°21'0 0.0
2016-Dec-05 19:32N 47°33' W 122°21'0 0.0
2016-Dec-05 18:33N 47°33' W 122°21'0 0.0
2016-Dec-05 17:33N 47°33' W 122°21'0 0.0
2016-Dec-05 16:33N 47°33' W 122°21'0 0.0
2016-Dec-05 15:33N 47°33' W 122°21'0 0.0
2016-Dec-05 14:32N 47°33' W 122°21'0 0.0
2016-Dec-05 13:33N 47°33' W 122°21'0 0.3
2016-Dec-05 12:34N 47°34' W 122°21'3 3.1
2016-Dec-05 11:34N 47°36' W 122°24'3 3.4
2016-Dec-05 10:34N 47°33' W 122°27'5 4.6
2016-Dec-05 09:33N 47°29' W 122°30'5 4.7
2016-Dec-05 08:33N 47°24' W 122°32'6 6.3
2016-Dec-05 07:33N 47°18' W 122°33'7 6.8
2016-Dec-05 06:32N 47°12' W 122°38'  
2016-Dec-01 12:07N 47°13' W 122°36'610.6
2016-Dec-01 11:32N 47°19' W 122°33'7 7.0
2016-Dec-01 10:33N 47°26' W 122°32'6 6.2
2016-Dec-01 09:33N 47°32' W 122°28'6 6.0
2016-Dec-01 08:34N 47°36' W 122°23'2 2.1
2016-Dec-01 07:31N 47°34' W 122°21'0 0.0
2016-Dec-01 06:31N 47°34' W 122°21'0 0.0
2016-Dec-01 05:32N 47°34' W 122°21'0 0.0
2016-Dec-01 04:28N 47°34' W 122°21'0 0.0
2016-Dec-01 03:31N 47°34' W 122°21'0 0.0
2016-Dec-01 02:31N 47°34' W 122°21'0 0.0
2016-Dec-01 01:32N 47°34' W 122°21'0 0.0
2016-Dec-01 00:31N 47°34' W 122°21'0 0.0
2016-Nov-30 23:28N 47°34' W 122°21'0 0.0
2016-Nov-30 22:31N 47°34' W 122°21'0 0.0
2016-Nov-30 21:32N 47°34' W 122°21'0 0.0
2016-Nov-30 20:32N 47°34' W 122°21'0 0.0
2016-Nov-30 19:31N 47°34' W 122°21'0 0.0
2016-Nov-30 18:32N 47°34' W 122°21'0 0.0
2016-Nov-30 17:31N 47°34' W 122°21'0 0.0
2016-Nov-30 16:32N 47°34' W 122°21'0 0.0
2016-Nov-30 15:32N 47°34' W 122°21'0 0.0
2016-Nov-30 14:32N 47°34' W 122°21'0 0.0
2016-Nov-30 13:31N 47°34' W 122°21'0 0.0
2016-Nov-30 12:31N 47°34' W 122°21'0 0.0
2016-Nov-30 11:33N 47°34' W 122°21'2 1.9
2016-Nov-30 10:33N 47°36' W 122°22'2 1.6
2016-Nov-30 09:33N 47°36' W 122°24'3 3.3
2016-Nov-30 08:33N 47°33' W 122°26'5 4.5
2016-Nov-30 07:33N 47°29' W 122°30'2 2.5
2016-Nov-30 06:33N 47°27' W 122°31'6 5.8
2016-Nov-30 05:33N 47°21' W 122°33'8 7.8
2016-Nov-30 04:33N 47°13' W 122°35'9 4.4
2016-Nov-30 02:31N 47°11' W 122°48'5 0.4
2016-Nov-29 13:29N 47°12' W 122°56'5 2.5
2016-Nov-29 11:31N 47°12' W 122°48'4 3.7
2016-Nov-29 10:29N 47°08' W 122°46'4 2.0
2016-Nov-29 08:33N 47°08' W 122°41'6 5.7
2016-Nov-29 07:33N 47°13' W 122°36'6 5.6
2016-Nov-29 06:33N 47°18' W 122°33'5 5.0
2016-Nov-29 05:33N 47°23' W 122°32'6 6.0
2016-Nov-29 04:33N 47°29' W 122°31'6 6.2
2016-Nov-29 03:33N 47°35' W 122°28'7 7.1
2016-Nov-29 02:33N 47°42' W 122°28'7 7.1
2016-Nov-29 01:33N 47°49' W 122°25'8 7.8
2016-Nov-29 00:33N 47°56' W 122°20'6 6.5
2016-Nov-28 23:33N 48°01' W 122°13'2 0.8
2016-Nov-28 21:31N 48°01' W 122°11'0 0.0
2016-Nov-28 20:33N 48°01' W 122°11'0 0.0
2016-Nov-28 19:33N 48°01' W 122°11'  

Dump ship's entire track history